sensor_id;sensor_type;location;lat;lon;timestamp;temperature;humidity
72106;SHT30;59975;47.646;18.318;2023-04-21T00:00:19;13.08;68.64
72106;SHT30;59975;47.646;18.318;2023-04-21T00:02:44;13.16;66.61
72106;SHT30;59975;47.646;18.318;2023-04-21T00:05:11;13.17;67.84
72106;SHT30;59975;47.646;18.318;2023-04-21T00:07:38;13.13;68.13
72106;SHT30;59975;47.646;18.318;2023-04-21T00:10:13;13.13;66.97
72106;SHT30;59975;47.646;18.318;2023-04-21T00:12:39;13.27;64.85
72106;SHT30;59975;47.646;18.318;2023-04-21T00:15:06;13.23;68.03
72106;SHT30;59975;47.646;18.318;2023-04-21T00:17:31;13.24;64.51
72106;SHT30;59975;47.646;18.318;2023-04-21T00:19:57;13.26;64.19
72106;SHT30;59975;47.646;18.318;2023-04-21T00:22:29;13.28;63.42
72106;SHT30;59975;47.646;18.318;2023-04-21T00:24:55;13.28;63.89
72106;SHT30;59975;47.646;18.318;2023-04-21T00:27:20;13.44;57.53
72106;SHT30;59975;47.646;18.318;2023-04-21T00:29:46;13.54;59.33
72106;SHT30;59975;47.646;18.318;2023-04-21T00:32:11;13.55;59.09
72106;SHT30;59975;47.646;18.318;2023-04-21T00:34:37;13.55;58.63
72106;SHT30;59975;47.646;18.318;2023-04-21T00:37:02;13.79;54.08
72106;SHT30;59975;47.646;18.318;2023-04-21T00:39:28;13.91;54.62
72106;SHT30;59975;47.646;18.318;2023-04-21T00:41:53;13.83;57.41
72106;SHT30;59975;47.646;18.318;2023-04-21T00:44:19;13.71;57.04
72106;SHT30;59975;47.646;18.318;2023-04-21T00:46:45;13.71;56.80
72106;SHT30;59975;47.646;18.318;2023-04-21T00:49:11;13.55;58.21
72106;SHT30;59975;47.646;18.318;2023-04-21T00:51:38;13.43;57.58
72106;SHT30;59975;47.646;18.318;2023-04-21T00:54:05;13.27;58.23
72106;SHT30;59975;47.646;18.318;2023-04-21T00:56:33;13.26;57.69
72106;SHT30;59975;47.646;18.318;2023-04-21T00:58:59;13.18;56.96
72106;SHT30;59975;47.646;18.318;2023-04-21T01:01:30;13.16;58.08
72106;SHT30;59975;47.646;18.318;2023-04-21T01:03:57;13.10;59.86
72106;SHT30;59975;47.646;18.318;2023-04-21T01:06:24;13.26;56.57
72106;SHT30;59975;47.646;18.318;2023-04-21T01:08:52;13.36;57.75
72106;SHT30;59975;47.646;18.318;2023-04-21T01:11:19;13.20;59.59
72106;SHT30;59975;47.646;18.318;2023-04-21T01:13:45;13.04;59.53
72106;SHT30;59975;47.646;18.318;2023-04-21T01:16:18;12.92;60.02
72106;SHT30;59975;47.646;18.318;2023-04-21T01:18:46;13.06;57.82
72106;SHT30;59975;47.646;18.318;2023-04-21T01:21:12;12.95;59.04
72106;SHT30;59975;47.646;18.318;2023-04-21T01:23:41;12.75;61.57
72106;SHT30;59975;47.646;18.318;2023-04-21T01:26:08;12.62;62.14
72106;SHT30;59975;47.646;18.318;2023-04-21T01:28:33;12.50;62.38
72106;SHT30;59975;47.646;18.318;2023-04-21T01:30:59;12.41;63.05
72106;SHT30;59975;47.646;18.318;2023-04-21T01:33:25;12.62;59.95
72106;SHT30;59975;47.646;18.318;2023-04-21T01:35:51;12.53;59.66
72106;SHT30;59975;47.646;18.318;2023-04-21T01:38:16;12.42;62.15
72106;SHT30;59975;47.646;18.318;2023-04-21T01:40:45;12.32;62.39
72106;SHT30;59975;47.646;18.318;2023-04-21T01:43:12;12.25;61.61
72106;SHT30;59975;47.646;18.318;2023-04-21T01:45:38;12.36;61.65
72106;SHT30;59975;47.646;18.318;2023-04-21T01:48:04;12.31;62.20
72106;SHT30;59975;47.646;18.318;2023-04-21T01:50:29;12.34;62.50
72106;SHT30;59975;47.646;18.318;2023-04-21T01:52:55;12.31;63.93
72106;SHT30;59975;47.646;18.318;2023-04-21T01:55:21;12.18;64.23
72106;SHT30;59975;47.646;18.318;2023-04-21T01:57:46;12.20;65.78
72106;SHT30;59975;47.646;18.318;2023-04-21T02:00:12;12.18;65.66
72106;SHT30;59975;47.646;18.318;2023-04-21T02:02:38;12.11;66.13
72106;SHT30;59975;47.646;18.318;2023-04-21T02:05:11;12.01;66.51
72106;SHT30;59975;47.646;18.318;2023-04-21T02:07:36;11.82;66.98
72106;SHT30;59975;47.646;18.318;2023-04-21T02:10:02;11.77;67.51
72106;SHT30;59975;47.646;18.318;2023-04-21T02:12:27;11.82;66.92
72106;SHT30;59975;47.646;18.318;2023-04-21T02:14:53;11.66;68.10
72106;SHT30;59975;47.646;18.318;2023-04-21T02:17:18;11.61;67.21
72106;SHT30;59975;47.646;18.318;2023-04-21T02:19:44;11.70;66.60
72106;SHT30;59975;47.646;18.318;2023-04-21T02:22:10;11.56;67.99
72106;SHT30;59975;47.646;18.318;2023-04-21T02:24:37;11.46;68.34
72106;SHT30;59975;47.646;18.318;2023-04-21T02:27:02;11.41;69.35
72106;SHT30;59975;47.646;18.318;2023-04-21T02:29:28;11.40;72.11
72106;SHT30;59975;47.646;18.318;2023-04-21T02:31:53;11.24;73.25
72106;SHT30;59975;47.646;18.318;2023-04-21T02:34:19;11.26;74.10
72106;SHT30;59975;47.646;18.318;2023-04-21T02:36:45;11.26;74.15
72106;SHT30;59975;47.646;18.318;2023-04-21T02:39:11;11.22;74.34
72106;SHT30;59975;47.646;18.318;2023-04-21T02:41:37;11.18;75.34
72106;SHT30;59975;47.646;18.318;2023-04-21T02:44:03;11.12;75.88
72106;SHT30;59975;47.646;18.318;2023-04-21T02:46:29;11.05;75.89
72106;SHT30;59975;47.646;18.318;2023-04-21T02:48:55;10.92;76.46
72106;SHT30;59975;47.646;18.318;2023-04-21T02:51:20;10.79;76.21
72106;SHT30;59975;47.646;18.318;2023-04-21T02:53:46;10.66;75.27
72106;SHT30;59975;47.646;18.318;2023-04-21T02:56:11;10.59;74.47
72106;SHT30;59975;47.646;18.318;2023-04-21T02:58:37;10.61;72.96
72106;SHT30;59975;47.646;18.318;2023-04-21T03:01:03;10.51;75.25
72106;SHT30;59975;47.646;18.318;2023-04-21T03:03:30;10.37;76.61
72106;SHT30;59975;47.646;18.318;2023-04-21T03:06:03;10.21;76.82
72106;SHT30;59975;47.646;18.318;2023-04-21T03:08:29;10.11;77.45
72106;SHT30;59975;47.646;18.318;2023-04-21T03:10:55;10.01;78.43
72106;SHT30;59975;47.646;18.318;2023-04-21T03:13:21;9.95;80.17
72106;SHT30;59975;47.646;18.318;2023-04-21T03:15:47;9.97;81.46
72106;SHT30;59975;47.646;18.318;2023-04-21T03:18:13;10.04;81.16
72106;SHT30;59975;47.646;18.318;2023-04-21T03:20:38;10.11;81.06
72106;SHT30;59975;47.646;18.318;2023-04-21T03:23:04;10.04;81.85
72106;SHT30;59975;47.646;18.318;2023-04-21T03:25:29;10.01;82.05
72106;SHT30;59975;47.646;18.318;2023-04-21T03:27:55;9.97;82.39
72106;SHT30;59975;47.646;18.318;2023-04-21T03:30:22;10.01;82.74
72106;SHT30;59975;47.646;18.318;2023-04-21T03:32:48;9.93;82.89
72106;SHT30;59975;47.646;18.318;2023-04-21T03:35:14;9.86;83.14
72106;SHT30;59975;47.646;18.318;2023-04-21T03:37:40;9.82;83.84
72106;SHT30;59975;47.646;18.318;2023-04-21T03:40:06;9.76;84.62
72106;SHT30;59975;47.646;18.318;2023-04-21T03:42:33;9.74;85.23
72106;SHT30;59975;47.646;18.318;2023-04-21T03:45:03;9.63;85.71
72106;SHT30;59975;47.646;18.318;2023-04-21T03:47:28;9.53;86.21
72106;SHT30;59975;47.646;18.318;2023-04-21T03:49:54;9.42;87.01
72106;SHT30;59975;47.646;18.318;2023-04-21T03:52:20;9.29;87.55
72106;SHT30;59975;47.646;18.318;2023-04-21T03:54:45;9.29;88.09
72106;SHT30;59975;47.646;18.318;2023-04-21T03:57:11;9.25;88.05
72106;SHT30;59975;47.646;18.318;2023-04-21T03:59:37;9.21;88.04
72106;SHT30;59975;47.646;18.318;2023-04-21T04:02:02;9.23;88.10
72106;SHT30;59975;47.646;18.318;2023-04-21T04:04:28;9.29;87.94
72106;SHT30;59975;47.646;18.318;2023-04-21T04:06:53;9.23;87.68
72106;SHT30;59975;47.646;18.318;2023-04-21T04:09:19;9.23;88.14
72106;SHT30;59975;47.646;18.318;2023-04-21T04:11:45;9.28;88.22
72106;SHT30;59975;47.646;18.318;2023-04-21T04:14:10;9.28;87.90
72106;SHT30;59975;47.646;18.318;2023-04-21T04:16:36;9.32;88.04
72106;SHT30;59975;47.646;18.318;2023-04-21T04:19:02;9.29;87.76
72106;SHT30;59975;47.646;18.318;2023-04-21T04:21:28;9.40;86.63
72106;SHT30;59975;47.646;18.318;2023-04-21T04:23:54;9.46;86.41
72106;SHT30;59975;47.646;18.318;2023-04-21T04:26:19;9.47;86.32
72106;SHT30;59975;47.646;18.318;2023-04-21T04:28:46;9.59;85.49
72106;SHT30;59975;47.646;18.318;2023-04-21T04:31:12;9.62;84.36
72106;SHT30;59975;47.646;18.318;2023-04-21T04:33:42;9.72;84.85
72106;SHT30;59975;47.646;18.318;2023-04-21T04:36:08;9.76;84.89
72106;SHT30;59975;47.646;18.318;2023-04-21T04:38:36;9.77;84.67
72106;SHT30;59975;47.646;18.318;2023-04-21T04:41:02;9.87;80.07
72106;SHT30;59975;47.646;18.318;2023-04-21T04:43:29;10.00;81.59
72106;SHT30;59975;47.646;18.318;2023-04-21T04:45:58;10.04;83.09
72106;SHT30;59975;47.646;18.318;2023-04-21T04:48:24;10.08;82.85
72106;SHT30;59975;47.646;18.318;2023-04-21T04:50:50;10.15;82.83
72106;SHT30;59975;47.646;18.318;2023-04-21T04:53:15;10.14;83.15
72106;SHT30;59975;47.646;18.318;2023-04-21T04:55:41;10.17;84.42
72106;SHT30;59975;47.646;18.318;2023-04-21T04:58:07;10.28;83.98
72106;SHT30;59975;47.646;18.318;2023-04-21T05:00:32;10.47;82.57
72106;SHT30;59975;47.646;18.318;2023-04-21T05:02:58;10.64;81.71
72106;SHT30;59975;47.646;18.318;2023-04-21T05:05:23;10.80;79.73
72106;SHT30;59975;47.646;18.318;2023-04-21T05:07:49;10.98;78.92
72106;SHT30;59975;47.646;18.318;2023-04-21T05:10:15;11.23;75.46
72106;SHT30;59975;47.646;18.318;2023-04-21T05:12:41;11.46;72.92
72106;SHT30;59975;47.646;18.318;2023-04-21T05:15:07;11.74;68.96
72106;SHT30;59975;47.646;18.318;2023-04-21T05:17:33;11.91;74.22
72106;SHT30;59975;47.646;18.318;2023-04-21T05:19:58;12.08;71.82
72106;SHT30;59975;47.646;18.318;2023-04-21T05:22:24;12.15;69.94
72106;SHT30;59975;47.646;18.318;2023-04-21T05:24:51;12.29;72.59
72106;SHT30;59975;47.646;18.318;2023-04-21T05:27:16;12.22;73.53
72106;SHT30;59975;47.646;18.318;2023-04-21T05:29:42;12.38;73.03
72106;SHT30;59975;47.646;18.318;2023-04-21T05:32:07;12.55;71.49
72106;SHT30;59975;47.646;18.318;2023-04-21T05:34:33;12.65;72.71
72106;SHT30;59975;47.646;18.318;2023-04-21T05:36:59;12.69;70.52
72106;SHT30;59975;47.646;18.318;2023-04-21T05:39:26;12.75;70.24
72106;SHT30;59975;47.646;18.318;2023-04-21T05:41:55;12.90;61.82
72106;SHT30;59975;47.646;18.318;2023-04-21T05:44:24;13.17;63.55
72106;SHT30;59975;47.646;18.318;2023-04-21T05:46:55;13.41;61.06
72106;SHT30;59975;47.646;18.318;2023-04-21T05:49:21;13.60;64.88
72106;SHT30;59975;47.646;18.318;2023-04-21T05:51:47;13.79;58.11
72106;SHT30;59975;47.646;18.318;2023-04-21T05:54:12;13.97;52.16
72106;SHT30;59975;47.646;18.318;2023-04-21T05:56:44;14.21;52.93
72106;SHT30;59975;47.646;18.318;2023-04-21T05:59:21;14.25;51.70
72106;SHT30;59975;47.646;18.318;2023-04-21T06:02:10;14.19;52.89
72106;SHT30;59975;47.646;18.318;2023-04-21T06:04:39;14.37;54.74
72106;SHT30;59975;47.646;18.318;2023-04-21T06:07:08;14.57;53.17
72106;SHT30;59975;47.646;18.318;2023-04-21T06:09:35;14.60;53.11
72106;SHT30;59975;47.646;18.318;2023-04-21T06:12:01;14.76;50.61
72106;SHT30;59975;47.646;18.318;2023-04-21T06:14:27;14.90;49.03
72106;SHT30;59975;47.646;18.318;2023-04-21T06:16:53;15.01;53.63
72106;SHT30;59975;47.646;18.318;2023-04-21T06:19:18;15.14;53.49
72106;SHT30;59975;47.646;18.318;2023-04-21T06:21:54;15.24;51.03
72106;SHT30;59975;47.646;18.318;2023-04-21T06:24:31;15.25;50.65
72106;SHT30;59975;47.646;18.318;2023-04-21T06:26:57;15.51;46.84
72106;SHT30;59975;47.646;18.318;2023-04-21T06:29:30;15.69;50.81
72106;SHT30;59975;47.646;18.318;2023-04-21T06:32:21;16.02;50.11
72106;SHT30;59975;47.646;18.318;2023-04-21T06:35:00;16.34;46.87
72106;SHT30;59975;47.646;18.318;2023-04-21T06:37:32;16.50;44.88
72106;SHT30;59975;47.646;18.318;2023-04-21T06:40:09;16.44;44.88
72106;SHT30;59975;47.646;18.318;2023-04-21T06:42:56;16.60;45.91
72106;SHT30;59975;47.646;18.318;2023-04-21T06:49:11;16.60;45.48
72106;SHT30;59975;47.646;18.318;2023-04-21T06:51:37;16.36;45.85
72106;SHT30;59975;47.646;18.318;2023-04-21T06:54:09;16.27;44.35
72106;SHT30;59975;47.646;18.318;2023-04-21T06:56:37;16.13;47.34
72106;SHT30;59975;47.646;18.318;2023-04-21T06:59:03;15.95;48.69
72106;SHT30;59975;47.646;18.318;2023-04-21T07:01:29;15.96;51.29
72106;SHT30;59975;47.646;18.318;2023-04-21T07:03:54;15.66;49.17
72106;SHT30;59975;47.646;18.318;2023-04-21T07:06:20;15.57;50.14
72106;SHT30;59975;47.646;18.318;2023-04-21T07:08:46;15.63;47.29
72106;SHT30;59975;47.646;18.318;2023-04-21T07:11:11;15.66;50.37
72106;SHT30;59975;47.646;18.318;2023-04-21T07:13:44;15.62;48.56
72106;SHT30;59975;47.646;18.318;2023-04-21T07:16:10;15.63;48.61
72106;SHT30;59975;47.646;18.318;2023-04-21T07:19:10;15.65;49.24
72106;SHT30;59975;47.646;18.318;2023-04-21T07:21:51;15.75;46.31
72106;SHT30;59975;47.646;18.318;2023-04-21T07:24:17;15.72;50.17
72106;SHT30;59975;47.646;18.318;2023-04-21T07:43:59;16.06;46.30
72106;SHT30;59975;47.646;18.318;2023-04-21T07:46:28;16.12;46.53
72106;SHT30;59975;47.646;18.318;2023-04-21T07:48:59;16.10;47.04
72106;SHT30;59975;47.646;18.318;2023-04-21T07:51:25;16.12;47.60
72106;SHT30;59975;47.646;18.318;2023-04-21T07:53:54;16.12;46.82
72106;SHT30;59975;47.646;18.318;2023-04-21T07:56:50;16.22;46.31
72106;SHT30;59975;47.646;18.318;2023-04-21T07:59:16;16.24;45.32
72106;SHT30;59975;47.646;18.318;2023-04-21T08:01:41;16.29;45.18
72106;SHT30;59975;47.646;18.318;2023-04-21T08:22:41;16.68;45.43
72106;SHT30;59975;47.646;18.318;2023-04-21T08:32:22;16.88;43.61
72106;SHT30;59975;47.646;18.318;2023-04-21T08:34:52;16.89;46.76
72106;SHT30;59975;47.646;18.318;2023-04-21T08:37:35;16.88;44.74
72106;SHT30;59975;47.646;18.318;2023-04-21T08:40:11;16.92;41.99
72106;SHT30;59975;47.646;18.318;2023-04-21T08:42:53;16.84;42.88
72106;SHT30;59975;47.646;18.318;2023-04-21T08:45:46;17.05;44.47
72106;SHT30;59975;47.646;18.318;2023-04-21T08:48:24;17.14;44.51
72106;SHT30;59975;47.646;18.318;2023-04-21T08:54:47;17.42;42.67
72106;SHT30;59975;47.646;18.318;2023-04-21T08:57:57;17.36;43.32
72106;SHT30;59975;47.646;18.318;2023-04-21T09:00:52;17.50;43.63
72106;SHT30;59975;47.646;18.318;2023-04-21T09:24:16;17.61;43.92
72106;SHT30;59975;47.646;18.318;2023-04-21T09:44:11;17.96;42.56
72106;SHT30;59975;47.646;18.318;2023-04-21T09:47:02;18.07;42.27
72106;SHT30;59975;47.646;18.318;2023-04-21T09:53:23;17.75;42.10
72106;SHT30;59975;47.646;18.318;2023-04-21T09:56:27;17.86;44.40
72106;SHT30;59975;47.646;18.318;2023-04-21T09:59:23;18.38;42.11
72106;SHT30;59975;47.646;18.318;2023-04-21T10:02:41;18.76;41.86
72106;SHT30;59975;47.646;18.318;2023-04-21T10:05:57;19.01;38.05
72106;SHT30;59975;47.646;18.318;2023-04-21T10:16:11;20.68;37.03
72106;SHT30;59975;47.646;18.318;2023-04-21T10:19:28;21.04;35.64
72106;SHT30;59975;47.646;18.318;2023-04-21T10:25:18;21.10;39.05
72106;SHT30;59975;47.646;18.318;2023-04-21T10:27:47;21.09;36.56
72106;SHT30;59975;47.646;18.318;2023-04-21T10:33:15;20.93;36.60
72106;SHT30;59975;47.646;18.318;2023-04-21T10:36:23;20.76;37.17
72106;SHT30;59975;47.646;18.318;2023-04-21T10:39:02;20.52;37.64
72106;SHT30;59975;47.646;18.318;2023-04-21T10:41:47;20.71;37.18
72106;SHT30;59975;47.646;18.318;2023-04-21T10:44:41;20.35;36.52
72106;SHT30;59975;47.646;18.318;2023-04-21T10:50:38;20.47;41.70
72106;SHT30;59975;47.646;18.318;2023-04-21T10:53:11;20.39;37.73
72106;SHT30;59975;47.646;18.318;2023-04-21T10:55:38;20.27;38.94
72106;SHT30;59975;47.646;18.318;2023-04-21T10:58:25;20.18;36.61
72106;SHT30;59975;47.646;18.318;2023-04-21T11:00:56;20.21;38.85
72106;SHT30;59975;47.646;18.318;2023-04-21T11:03:23;20.28;38.48
72106;SHT30;59975;47.646;18.318;2023-04-21T11:05:49;20.18;35.72
72106;SHT30;59975;47.646;18.318;2023-04-21T11:08:25;20.39;38.24
72106;SHT30;59975;47.646;18.318;2023-04-21T11:10:53;20.27;37.61
72106;SHT30;59975;47.646;18.318;2023-04-21T11:13:39;20.28;36.18
72106;SHT30;59975;47.646;18.318;2023-04-21T11:16:06;20.03;40.92
72106;SHT30;59975;47.646;18.318;2023-04-21T11:23:40;19.81;38.81
72106;SHT30;59975;47.646;18.318;2023-04-21T11:26:06;19.67;39.07
72106;SHT30;59975;47.646;18.318;2023-04-21T11:28:32;19.55;39.57
72106;SHT30;59975;47.646;18.318;2023-04-21T11:30:58;19.40;43.62
72106;SHT30;59975;47.646;18.318;2023-04-21T11:33:23;19.60;38.63
72106;SHT30;59975;47.646;18.318;2023-04-21T11:35:49;19.57;37.39
72106;SHT30;59975;47.646;18.318;2023-04-21T11:38:15;19.59;37.09
72106;SHT30;59975;47.646;18.318;2023-04-21T11:40:48;19.03;38.71
72106;SHT30;59975;47.646;18.318;2023-04-21T11:43:14;19.20;37.80
72106;SHT30;59975;47.646;18.318;2023-04-21T11:45:40;19.19;37.87
72106;SHT30;59975;47.646;18.318;2023-04-21T11:48:16;19.29;38.08
72106;SHT30;59975;47.646;18.318;2023-04-21T11:50:51;19.36;38.44
72106;SHT30;59975;47.646;18.318;2023-04-21T11:53:18;18.88;38.35
72106;SHT30;59975;47.646;18.318;2023-04-21T11:55:46;18.54;38.88
72106;SHT30;59975;47.646;18.318;2023-04-21T11:58:12;19.15;37.97
72106;SHT30;59975;47.646;18.318;2023-04-21T12:00:43;19.33;37.15
72106;SHT30;59975;47.646;18.318;2023-04-21T12:03:12;19.59;36.85
72106;SHT30;59975;47.646;18.318;2023-04-21T12:05:38;19.62;37.44
72106;SHT30;59975;47.646;18.318;2023-04-21T12:08:03;19.55;38.19
72106;SHT30;59975;47.646;18.318;2023-04-21T12:10:32;19.76;38.52
72106;SHT30;59975;47.646;18.318;2023-04-21T12:12:58;18.89;38.76
72106;SHT30;59975;47.646;18.318;2023-04-21T12:15:24;18.60;39.24
72106;SHT30;59975;47.646;18.318;2023-04-21T12:17:51;19.16;39.04
72106;SHT30;59975;47.646;18.318;2023-04-21T12:20:20;18.96;38.05
72106;SHT30;59975;47.646;18.318;2023-04-21T12:22:47;19.19;38.46
72106;SHT30;59975;47.646;18.318;2023-04-21T12:25:13;18.99;38.19
72106;SHT30;59975;47.646;18.318;2023-04-21T12:27:49;18.96;40.41
72106;SHT30;59975;47.646;18.318;2023-04-21T12:30:15;19.33;38.43
72106;SHT30;59975;47.646;18.318;2023-04-21T12:32:41;19.39;37.76
72106;SHT30;59975;47.646;18.318;2023-04-21T12:35:07;19.25;38.34
72106;SHT30;59975;47.646;18.318;2023-04-21T12:37:36;19.25;38.56
72106;SHT30;59975;47.646;18.318;2023-04-21T12:40:03;19.35;37.94
72106;SHT30;59975;47.646;18.318;2023-04-21T12:42:37;19.22;39.42
72106;SHT30;59975;47.646;18.318;2023-04-21T12:45:07;19.35;38.68
72106;SHT30;59975;47.646;18.318;2023-04-21T12:47:35;19.65;40.14
72106;SHT30;59975;47.646;18.318;2023-04-21T12:53:38;20.71;35.48
72106;SHT30;59975;47.646;18.318;2023-04-21T12:56:07;21.16;37.00
72106;SHT30;59975;47.646;18.318;2023-04-21T13:01:40;21.00;37.24
72106;SHT30;59975;47.646;18.318;2023-04-21T13:04:08;21.34;35.13
72106;SHT30;59975;47.646;18.318;2023-04-21T13:06:34;21.14;36.54
72106;SHT30;59975;47.646;18.318;2023-04-21T13:09:02;20.86;36.13
72106;SHT30;59975;47.646;18.318;2023-04-21T13:11:28;20.99;36.05
72106;SHT30;59975;47.646;18.318;2023-04-21T13:13:54;21.18;34.99
72106;SHT30;59975;47.646;18.318;2023-04-21T13:16:20;20.89;35.26
72106;SHT30;59975;47.646;18.318;2023-04-21T13:18:45;20.42;37.08
72106;SHT30;59975;47.646;18.318;2023-04-21T13:21:12;20.29;38.06
72106;SHT30;59975;47.646;18.318;2023-04-21T13:23:37;20.28;36.95
72106;SHT30;59975;47.646;18.318;2023-04-21T13:26:03;20.67;36.48
72106;SHT30;59975;47.646;18.318;2023-04-21T13:28:29;20.75;36.30
72106;SHT30;59975;47.646;18.318;2023-04-21T13:30:57;20.81;36.68
72106;SHT30;59975;47.646;18.318;2023-04-21T13:33:22;20.37;38.11
72106;SHT30;59975;47.646;18.318;2023-04-21T13:35:48;19.94;37.52
72106;SHT30;59975;47.646;18.318;2023-04-21T13:38:14;19.84;37.84
72106;SHT30;59975;47.646;18.318;2023-04-21T13:40:39;20.22;37.83
72106;SHT30;59975;47.646;18.318;2023-04-21T13:43:05;20.34;37.63
72106;SHT30;59975;47.646;18.318;2023-04-21T13:45:31;20.21;37.88
72106;SHT30;59975;47.646;18.318;2023-04-21T13:47:56;20.27;37.62
72106;SHT30;59975;47.646;18.318;2023-04-21T13:50:24;20.41;37.68
72106;SHT30;59975;47.646;18.318;2023-04-21T13:52:50;20.78;36.43
72106;SHT30;59975;47.646;18.318;2023-04-21T13:55:16;21.00;35.93
72106;SHT30;59975;47.646;18.318;2023-04-21T13:57:42;21.03;37.27
72106;SHT30;59975;47.646;18.318;2023-04-21T14:00:08;21.32;35.98
72106;SHT30;59975;47.646;18.318;2023-04-21T14:02:35;21.20;37.38
72106;SHT30;59975;47.646;18.318;2023-04-21T14:05:00;21.14;34.31
72106;SHT30;59975;47.646;18.318;2023-04-21T14:07:26;21.44;36.58
72106;SHT30;59975;47.646;18.318;2023-04-21T14:09:51;21.67;34.09
72106;SHT30;59975;47.646;18.318;2023-04-21T14:12:17;21.61;32.60
72106;SHT30;59975;47.646;18.318;2023-04-21T14:14:43;21.26;33.80
72106;SHT30;59975;47.646;18.318;2023-04-21T14:17:08;21.04;34.35
72106;SHT30;59975;47.646;18.318;2023-04-21T14:19:34;20.68;36.03
72106;SHT30;59975;47.646;18.318;2023-04-21T14:22:00;20.76;36.24
72106;SHT30;59975;47.646;18.318;2023-04-21T14:24:25;20.79;36.19
72106;SHT30;59975;47.646;18.318;2023-04-21T14:26:53;20.62;36.57
72106;SHT30;59975;47.646;18.318;2023-04-21T14:29:21;20.44;36.15
72106;SHT30;59975;47.646;18.318;2023-04-21T14:31:47;20.28;36.97
72106;SHT30;59975;47.646;18.318;2023-04-21T14:34:12;19.97;37.02
72106;SHT30;59975;47.646;18.318;2023-04-21T14:36:38;19.52;37.18
72106;SHT30;59975;47.646;18.318;2023-04-21T14:39:03;19.69;37.35
72106;SHT30;59975;47.646;18.318;2023-04-21T14:41:29;20.22;37.78
72106;SHT30;59975;47.646;18.318;2023-04-21T14:43:55;20.25;37.19
72106;SHT30;59975;47.646;18.318;2023-04-21T14:46:22;20.42;37.90
72106;SHT30;59975;47.646;18.318;2023-04-21T14:48:47;20.53;37.17
72106;SHT30;59975;47.646;18.318;2023-04-21T14:51:13;20.71;37.47
72106;SHT30;59975;47.646;18.318;2023-04-21T14:53:38;20.82;35.61
72106;SHT30;59975;47.646;18.318;2023-04-21T14:56:05;20.47;36.82
72106;SHT30;59975;47.646;18.318;2023-04-21T14:58:30;20.00;37.14
72106;SHT30;59975;47.646;18.318;2023-04-21T15:00:56;19.50;36.85
72106;SHT30;59975;47.646;18.318;2023-04-21T15:03:22;19.53;36.81
72106;SHT30;59975;47.646;18.318;2023-04-21T15:05:48;19.49;37.97
72106;SHT30;59975;47.646;18.318;2023-04-21T15:08:13;19.98;37.67
72106;SHT30;59975;47.646;18.318;2023-04-21T15:10:43;19.98;36.63
72106;SHT30;59975;47.646;18.318;2023-04-21T15:13:08;19.90;37.32
72106;SHT30;59975;47.646;18.318;2023-04-21T15:15:34;20.01;36.52
72106;SHT30;59975;47.646;18.318;2023-04-21T15:18:00;19.97;37.49
72106;SHT30;59975;47.646;18.318;2023-04-21T15:20:26;19.90;38.78
72106;SHT30;59975;47.646;18.318;2023-04-21T15:22:51;19.60;37.88
72106;SHT30;59975;47.646;18.318;2023-04-21T15:25:17;19.52;39.98
72106;SHT30;59975;47.646;18.318;2023-04-21T15:27:42;19.53;38.11
72106;SHT30;59975;47.646;18.318;2023-04-21T15:30:08;19.67;38.59
72106;SHT30;59975;47.646;18.318;2023-04-21T15:32:34;19.53;37.84
72106;SHT30;59975;47.646;18.318;2023-04-21T15:34:59;19.39;38.04
72106;SHT30;59975;47.646;18.318;2023-04-21T15:37:26;19.13;38.17
72106;SHT30;59975;47.646;18.318;2023-04-21T15:39:51;19.22;41.45
72106;SHT30;59975;47.646;18.318;2023-04-21T15:42:17;19.32;45.31
72106;SHT30;59975;47.646;18.318;2023-04-21T15:44:42;19.06;42.24
72106;SHT30;59975;47.646;18.318;2023-04-21T15:47:08;19.01;38.67
72106;SHT30;59975;47.646;18.318;2023-04-21T15:49:34;18.94;41.45
72106;SHT30;59975;47.646;18.318;2023-04-21T15:52:01;18.79;40.08
72106;SHT30;59975;47.646;18.318;2023-04-21T15:54:28;18.94;41.04
72106;SHT30;59975;47.646;18.318;2023-04-21T15:56:53;18.85;38.96
72106;SHT30;59975;47.646;18.318;2023-04-21T15:59:19;18.81;38.98
72106;SHT30;59975;47.646;18.318;2023-04-21T16:01:45;18.71;38.32
72106;SHT30;59975;47.646;18.318;2023-04-21T16:04:10;18.79;38.25
72106;SHT30;59975;47.646;18.318;2023-04-21T16:06:36;18.88;40.00
72106;SHT30;59975;47.646;18.318;2023-04-21T16:09:02;18.74;40.79
72106;SHT30;59975;47.646;18.318;2023-04-21T16:11:27;18.61;39.32
72106;SHT30;59975;47.646;18.318;2023-04-21T16:13:54;18.71;38.70
72106;SHT30;59975;47.646;18.318;2023-04-21T16:16:19;18.51;38.98
72106;SHT30;59975;47.646;18.318;2023-04-21T16:18:45;18.38;39.41
72106;SHT30;59975;47.646;18.318;2023-04-21T16:21:10;18.38;39.53
72106;SHT30;59975;47.646;18.318;2023-04-21T16:23:36;18.50;40.55
72106;SHT30;59975;47.646;18.318;2023-04-21T16:26:02;18.58;44.55
72106;SHT30;59975;47.646;18.318;2023-04-21T16:28:30;18.43;41.09
72106;SHT30;59975;47.646;18.318;2023-04-21T16:30:55;18.43;40.69
72106;SHT30;59975;47.646;18.318;2023-04-21T16:33:21;18.43;40.70
72106;SHT30;59975;47.646;18.318;2023-04-21T16:35:46;18.37;45.77
72106;SHT30;59975;47.646;18.318;2023-04-21T16:38:12;18.21;41.07
72106;SHT30;59975;47.646;18.318;2023-04-21T16:40:37;18.09;41.26
72106;SHT30;59975;47.646;18.318;2023-04-21T16:43:03;18.09;42.53
72106;SHT30;59975;47.646;18.318;2023-04-21T16:45:29;18.03;42.59
72106;SHT30;59975;47.646;18.318;2023-04-21T16:47:55;17.89;43.78
72106;SHT30;59975;47.646;18.318;2023-04-21T16:50:20;17.72;43.15
72106;SHT30;59975;47.646;18.318;2023-04-21T16:52:46;17.56;43.02
72106;SHT30;59975;47.646;18.318;2023-04-21T16:55:11;17.50;42.85
72106;SHT30;59975;47.646;18.318;2023-04-21T16:57:37;17.42;43.07
72106;SHT30;59975;47.646;18.318;2023-04-21T17:00:03;17.35;43.44
72106;SHT30;59975;47.646;18.318;2023-04-21T17:02:33;17.28;43.34
72106;SHT30;59975;47.646;18.318;2023-04-21T17:04:58;17.22;43.90
72106;SHT30;59975;47.646;18.318;2023-04-21T17:07:24;17.16;43.94
72106;SHT30;59975;47.646;18.318;2023-04-21T17:09:50;17.05;44.21
72106;SHT30;59975;47.646;18.318;2023-04-21T17:12:16;16.91;45.01
72106;SHT30;59975;47.646;18.318;2023-04-21T17:14:42;16.75;45.29
72106;SHT30;59975;47.646;18.318;2023-04-21T17:17:08;16.68;45.16
72106;SHT30;59975;47.646;18.318;2023-04-21T17:19:33;16.61;45.90
72106;SHT30;59975;47.646;18.318;2023-04-21T17:21:59;16.60;46.73
72106;SHT30;59975;47.646;18.318;2023-04-21T17:24:24;16.44;46.80
72106;SHT30;59975;47.646;18.318;2023-04-21T17:26:50;16.26;47.16